createdAt,value
2022-08-24T00:00:34.985Z,61.45
2022-08-24T00:03:02.549Z,62.00
2022-08-24T00:05:29.845Z,58.05
2022-08-24T00:07:56.945Z,58.92
2022-08-24T00:10:25.122Z,61.08
2022-08-24T00:12:52.325Z,60.97
2022-08-24T00:15:19.455Z,63.03
2022-08-24T00:17:46.442Z,61.72
2022-08-24T00:20:13.828Z,61.28
2022-08-24T00:22:41.244Z,63.15
2022-08-24T00:25:11.206Z,62.13
2022-08-24T00:27:39.326Z,61.83
2022-08-24T00:30:09.433Z,62.08
2022-08-24T00:32:37.830Z,61.53
2022-08-24T00:35:09.022Z,63.15
2022-08-24T00:37:36.823Z,62.47
2022-08-24T00:40:07.288Z,66.00
2022-08-24T00:42:34.115Z,64.90
2022-08-24T00:45:00.935Z,66.70
2022-08-24T00:47:34.605Z,64.97
2022-08-24T00:50:06.746Z,64.07
2022-08-24T00:52:39.798Z,63.35
2022-08-24T00:55:15.735Z,64.30
2022-08-24T00:57:46.314Z,63.10
2022-08-24T01:00:19.176Z,63.80
2022-08-24T01:02:50.184Z,63.17
2022-08-24T01:05:17.893Z,63.10
2022-08-24T01:07:49.355Z,62.83
2022-08-24T01:10:26.090Z,64.50
2022-08-24T01:13:00.348Z,61.00
2022-08-24T01:15:30.363Z,56.55
2022-08-24T01:18:16.531Z,55.38
2022-08-24T01:20:49.616Z,58.83
2022-08-24T01:23:55.171Z,61.80
2022-08-24T01:26:49.445Z,64.38
2022-08-24T01:29:23.682Z,62.63
2022-08-24T01:31:53.283Z,64.10
2022-08-24T01:34:21.276Z,63.30
2022-08-24T01:36:56.042Z,65.97
2022-08-24T01:39:32.944Z,65.10
2022-08-24T01:42:00.892Z,65.00
2022-08-24T01:44:30.740Z,63.28
2022-08-24T01:46:57.749Z,65.35
2022-08-24T01:49:30.719Z,67.75
2022-08-24T01:51:59.557Z,73.20
2022-08-24T01:54:27.622Z,72.43
2022-08-24T01:56:54.937Z,71.68
2022-08-24T01:59:22.337Z,65.78
2022-08-24T02:01:55.247Z,71.22
2022-08-24T02:04:22.785Z,68.45
2022-08-24T02:06:50.094Z,69.60
2022-08-24T02:09:18.216Z,71.43
2022-08-24T02:11:45.216Z,70.63
2022-08-24T02:14:14.591Z,65.40
2022-08-24T02:16:42.704Z,65.25
2022-08-24T02:19:10.006Z,60.30
2022-08-24T02:21:38.208Z,62.80
2022-08-24T02:24:07.731Z,63.05
2022-08-24T02:26:34.809Z,67.55
2022-08-24T02:29:03.615Z,71.43
2022-08-24T02:31:31.532Z,69.55
2022-08-24T02:33:58.912Z,68.50
2022-08-24T02:36:26.738Z,64.75
2022-08-24T02:38:58.061Z,70.53
2022-08-24T02:41:26.021Z,71.68
2022-08-24T02:43:54.436Z,68.15
2022-08-24T02:46:23.814Z,65.45
2022-08-24T02:48:57.401Z,67.90
2022-08-24T02:51:45.017Z,71.55
2022-08-24T02:54:19.515Z,74.90
2022-08-24T02:56:48.592Z,74.25
2022-08-24T02:59:16.863Z,77.68
2022-08-24T03:01:44.964Z,76.85
2022-08-24T03:04:13.506Z,75.22
2022-08-24T03:06:40.470Z,72.57
2022-08-24T03:09:08.220Z,76.18
2022-08-24T03:11:35.098Z,74.75
2022-08-24T03:14:02.075Z,75.68
2022-08-24T03:16:30.625Z,73.40
2022-08-24T03:18:57.979Z,73.57
2022-08-24T03:21:28.681Z,74.60
2022-08-24T03:23:56.585Z,75.80
2022-08-24T03:26:24.762Z,70.70
2022-08-24T03:28:52.010Z,70.30
2022-08-24T03:31:19.730Z,68.90
2022-08-24T03:33:48.885Z,67.10
2022-08-24T03:36:16.848Z,69.60
2022-08-24T03:38:44.009Z,67.10
2022-08-24T03:41:11.512Z,63.33
2022-08-24T03:43:46.368Z,68.38
2022-08-24T03:46:20.019Z,65.70
2022-08-24T03:48:47.805Z,64.75
2022-08-24T03:51:19.131Z,59.30
2022-08-24T03:53:47.844Z,53.30
2022-08-24T03:56:15.614Z,48.22
2022-08-24T03:58:42.771Z,50.10
2022-08-24T04:01:10.904Z,57.95
2022-08-24T04:03:43.986Z,56.70
2022-08-24T04:06:13.631Z,57.22
2022-08-24T04:08:41.710Z,66.32
2022-08-24T04:11:19.810Z,68.00
2022-08-24T04:13:48.175Z,76.53
2022-08-24T04:16:20.258Z,77.95
2022-08-24T04:18:53.510Z,75.60
2022-08-24T04:21:27.348Z,74.88
2022-08-24T04:23:55.197Z,71.22
2022-08-24T04:26:43.743Z,71.45
2022-08-24T04:29:16.632Z,76.00
2022-08-24T04:31:48.501Z,70.50
2022-08-24T04:34:17.464Z,98.30
2022-08-24T04:36:46.251Z,68.68
2022-08-24T04:39:14.066Z,53.95
2022-08-24T04:41:50.920Z,43.13
2022-08-24T04:44:20.592Z,37.40
2022-08-24T04:46:48.492Z,34.97
2022-08-24T04:49:15.460Z,32.95
2022-08-24T04:51:43.664Z,44.30
2022-08-24T04:54:10.792Z,69.00
2022-08-24T04:56:39.196Z,65.97
2022-08-24T04:59:07.128Z,68.70
2022-08-24T05:01:35.024Z,106.25
2022-08-24T05:04:05.267Z,77.05
2022-08-24T05:06:33.901Z,116.68
2022-08-24T05:09:02.449Z,97.13
2022-08-24T05:11:30.013Z,69.15
2022-08-24T05:13:57.917Z,69.90
2022-08-24T05:16:26.185Z,69.85
2022-08-24T05:18:54.683Z,70.35
2022-08-24T05:21:24.665Z,69.07
2022-08-24T05:23:54.362Z,67.28
2022-08-24T05:26:26.038Z,63.67
2022-08-24T05:28:56.071Z,58.75
2022-08-24T05:31:26.131Z,58.70
2022-08-24T05:33:53.629Z,59.30
2022-08-24T05:36:20.964Z,60.38
2022-08-24T05:38:49.204Z,58.97
2022-08-24T05:41:17.680Z,57.75
2022-08-24T05:43:46.704Z,60.08
2022-08-24T05:46:14.783Z,57.78
2022-08-24T05:48:42.289Z,57.55
2022-08-24T05:51:11.193Z,60.42
2022-08-24T05:53:48.829Z,59.38
2022-08-24T05:56:17.541Z,62.47
2022-08-24T05:58:45.678Z,59.20
2022-08-24T06:01:17.014Z,58.10
2022-08-24T06:03:44.360Z,57.45
2022-08-24T06:06:14.940Z,58.45
2022-08-24T06:08:45.765Z,59.20
2022-08-24T06:11:23.997Z,58.58
2022-08-24T06:14:00.927Z,59.00
2022-08-24T06:16:30.706Z,56.85
2022-08-24T06:18:57.738Z,58.30
2022-08-24T06:21:28.757Z,57.03
2022-08-24T06:23:57.446Z,58.88
2022-08-24T06:26:42.800Z,58.58
2022-08-24T06:29:12.231Z,62.97
2022-08-24T06:31:47.113Z,66.00
2022-08-24T06:34:18.043Z,66.78
2022-08-24T06:36:45.564Z,62.38
2022-08-24T06:39:14.185Z,62.10
2022-08-24T06:41:44.937Z,59.20
2022-08-24T06:44:17.450Z,59.67
2022-08-24T06:46:55.139Z,56.85
2022-08-24T06:49:22.075Z,55.03
2022-08-24T06:51:50.872Z,51.35
2022-08-24T06:54:20.935Z,47.88
2022-08-24T06:56:48.869Z,47.47
2022-08-24T06:59:16.300Z,48.22
2022-08-24T07:01:43.253Z,47.55
2022-08-24T07:04:10.836Z,46.05
2022-08-24T07:07:06.479Z,45.75
2022-08-24T07:09:33.583Z,49.22
2022-08-24T07:12:01.542Z,47.58
2022-08-24T07:14:29.879Z,48.40
2022-08-24T07:16:58.877Z,51.05
2022-08-24T07:19:25.959Z,48.45
2022-08-24T07:21:58.000Z,39.72
2022-08-24T07:24:26.537Z,38.72
2022-08-24T07:26:54.355Z,32.80
2022-08-24T07:29:50.362Z,31.42
2022-08-24T07:32:10.192Z,28.85
2022-08-24T07:34:40.479Z,27.40
2022-08-24T07:37:08.233Z,26.05
2022-08-24T07:39:41.313Z,25.60
2022-08-24T07:42:15.844Z,23.17
2022-08-24T07:44:48.344Z,22.55
2022-08-24T07:47:37.410Z,21.50
2022-08-24T07:50:13.574Z,22.50
2022-08-24T07:52:41.628Z,24.50
2022-08-24T07:55:11.578Z,24.08
2022-08-24T07:57:40.697Z,25.67
2022-08-24T08:00:12.737Z,22.00
2022-08-24T08:02:46.687Z,19.17
2022-08-24T08:05:18.057Z,22.60
2022-08-24T08:07:51.631Z,22.58
2022-08-24T08:10:19.236Z,23.73
2022-08-24T08:12:47.154Z,24.60
2022-08-24T08:15:13.971Z,20.80
2022-08-24T08:17:55.725Z,23.58
2022-08-24T08:20:23.494Z,22.25
2022-08-24T08:23:09.450Z,19.98
2022-08-24T08:25:55.322Z,21.50
2022-08-24T08:28:37.378Z,16.48
2022-08-24T08:31:05.757Z,20.75
2022-08-24T08:33:36.263Z,20.88
2022-08-24T08:36:07.864Z,20.52
2022-08-24T08:38:38.567Z,17.88
2022-08-24T08:41:35.141Z,19.73
2022-08-24T08:44:34.788Z,21.20
2022-08-24T08:47:05.493Z,19.58
2022-08-24T08:49:57.133Z,22.90
2022-08-24T08:52:53.072Z,21.70
2022-08-24T08:55:35.151Z,23.15
2022-08-24T08:58:28.669Z,19.92
2022-08-24T09:01:05.158Z,21.88
2022-08-24T09:03:57.360Z,24.65
2022-08-24T09:06:45.013Z,20.17
2022-08-24T09:09:26.941Z,24.98
2022-08-24T09:11:57.459Z,25.08
2022-08-24T09:14:55.399Z,24.42
2022-08-24T09:17:38.566Z,23.50
2022-08-24T09:20:20.877Z,26.48
2022-08-24T09:22:55.136Z,21.67
2022-08-24T09:26:18.572Z,24.77
2022-08-24T09:29:14.406Z,23.55
2022-08-24T09:32:09.384Z,25.35
2022-08-24T09:35:01.184Z,25.50
2022-08-24T09:37:50.745Z,26.23
2022-08-24T09:40:39.489Z,26.05
2022-08-24T09:43:28.961Z,24.08
2022-08-24T09:46:08.951Z,24.08
2022-08-24T09:49:00.555Z,21.13
2022-08-24T09:51:42.552Z,21.23
2022-08-24T09:54:32.153Z,19.85
2022-08-24T09:57:44.227Z,21.25
2022-08-24T10:00:21.941Z,21.70
2022-08-24T10:03:32.378Z,20.20
2022-08-24T10:06:18.066Z,21.30
2022-08-24T10:09:25.698Z,20.70
2022-08-24T10:12:20.377Z,20.08
2022-08-24T10:15:05.873Z,18.90
2022-08-24T10:18:06.142Z,20.63
2022-08-24T10:21:02.187Z,20.58
2022-08-24T10:23:50.615Z,19.75
2022-08-24T10:26:36.703Z,20.02
2022-08-24T10:29:18.692Z,18.92
2022-08-24T10:31:47.754Z,18.83
2022-08-24T10:34:36.898Z,20.00
2022-08-24T10:37:42.407Z,18.60
2022-08-24T10:40:40.082Z,19.98
2022-08-24T10:43:47.474Z,20.27
2022-08-24T10:46:48.076Z,20.27
2022-08-24T10:49:33.544Z,19.30
2022-08-24T10:52:38.470Z,19.50
2022-08-24T10:55:32.991Z,18.20
2022-08-24T10:58:18.468Z,17.90
2022-08-24T11:00:45.503Z,17.85
2022-08-24T11:03:16.444Z,17.58
2022-08-24T11:05:55.184Z,17.77
2022-08-24T11:08:33.379Z,17.83
2022-08-24T11:11:10.418Z,19.10
2022-08-24T11:13:50.587Z,17.58
2022-08-24T11:16:25.851Z,17.83
2022-08-24T11:18:57.536Z,19.55
2022-08-24T11:21:38.780Z,19.77
2022-08-24T11:24:14.037Z,18.88
2022-08-24T11:27:18.413Z,16.27
2022-08-24T11:29:51.599Z,14.07
2022-08-24T11:32:38.984Z,15.00
2022-08-24T11:35:27.009Z,15.13
2022-08-24T11:38:23.490Z,14.52
2022-08-24T11:40:57.814Z,15.20
2022-08-24T11:43:31.931Z,14.50
2022-08-24T11:46:12.135Z,15.80
2022-08-24T11:48:48.958Z,17.42
2022-08-24T11:51:45.248Z,16.95
2022-08-24T11:54:43.795Z,15.85
2022-08-24T11:57:48.097Z,17.08
2022-08-24T12:00:21.462Z,16.13
2022-08-24T12:03:21.560Z,17.83
2022-08-24T12:06:13.809Z,17.10
2022-08-24T12:09:01.317Z,17.02
2022-08-24T12:11:41.898Z,17.98
2022-08-24T12:14:27.427Z,16.63
2022-08-24T12:17:04.738Z,16.50
2022-08-24T12:19:35.623Z,17.75
2022-08-24T12:22:05.991Z,17.15
2022-08-24T12:24:39.614Z,17.80
2022-08-24T12:27:38.991Z,18.80
2022-08-24T12:30:13.222Z,18.70
2022-08-24T12:32:48.459Z,20.15
2022-08-24T12:35:28.544Z,19.50
2022-08-24T12:38:12.357Z,19.25
2022-08-24T12:40:53.862Z,21.33
2022-08-24T12:43:31.956Z,21.75
2022-08-24T12:46:01.423Z,22.30
2022-08-24T12:48:39.518Z,21.88
2022-08-24T12:51:40.096Z,22.42
2022-08-24T12:54:13.688Z,22.55
2022-08-24T12:57:28.204Z,21.42
2022-08-24T12:59:58.847Z,22.40
2022-08-24T13:02:30.729Z,22.98
2022-08-24T13:05:03.349Z,21.13
2022-08-24T13:07:46.612Z,22.17
2022-08-24T13:10:44.142Z,21.52
2022-08-24T13:13:16.624Z,21.20
2022-08-24T13:15:54.140Z,22.55
2022-08-24T13:18:20.927Z,22.92
2022-08-24T13:20:50.663Z,21.70
2022-08-24T13:23:23.818Z,20.90
2022-08-24T13:26:23.067Z,20.27
2022-08-24T13:28:56.819Z,21.33
2022-08-24T13:31:34.413Z,22.05
2022-08-24T13:34:08.963Z,21.48
2022-08-24T13:36:35.716Z,20.63
2022-08-24T13:39:34.999Z,19.70
2022-08-24T13:42:10.930Z,20.67
2022-08-24T13:44:57.241Z,19.27
2022-08-24T13:48:03.070Z,18.95
2022-08-24T13:50:46.831Z,18.75
2022-08-24T13:53:49.175Z,17.50
2022-08-24T13:56:28.318Z,18.48
2022-08-24T13:59:44.514Z,18.13
2022-08-24T14:02:14.315Z,18.17
2022-08-24T14:04:56.464Z,18.17
2022-08-24T14:07:34.331Z,18.05
2022-08-24T14:10:01.066Z,17.85
2022-08-24T14:12:31.016Z,18.00
2022-08-24T14:15:31.974Z,18.33
2022-08-24T14:19:12.127Z,17.50
2022-08-24T14:21:56.802Z,17.75
2022-08-24T14:24:40.368Z,17.77
2022-08-24T14:27:49.913Z,18.00
2022-08-24T14:30:19.818Z,18.10
2022-08-24T14:33:03.177Z,18.02
2022-08-24T14:35:42.128Z,17.35
2022-08-24T14:38:26.326Z,17.33
2022-08-24T14:41:40.345Z,17.45
2022-08-24T14:44:19.827Z,16.55
2022-08-24T14:46:49.534Z,17.73
2022-08-24T14:49:40.066Z,17.88
2022-08-24T14:52:39.695Z,16.42
2022-08-24T14:55:18.396Z,17.35
2022-08-24T14:58:29.156Z,17.13
2022-08-24T15:01:02.746Z,17.25
2022-08-24T15:03:48.191Z,17.38
2022-08-24T15:06:28.161Z,18.15
2022-08-24T15:09:07.167Z,17.95
2022-08-24T15:11:38.654Z,16.92
2022-08-24T15:14:09.686Z,17.73
2022-08-24T15:16:49.022Z,17.45
2022-08-24T15:19:23.976Z,17.67
2022-08-24T15:22:15.168Z,17.42
2022-08-24T15:24:52.702Z,16.95
2022-08-24T15:27:40.643Z,16.63
2022-08-24T15:30:22.964Z,18.10
2022-08-24T15:33:04.170Z,18.35
2022-08-24T15:35:35.485Z,17.80
2022-08-24T15:38:36.597Z,17.13
2022-08-24T15:41:20.138Z,16.90
2022-08-24T15:43:48.878Z,15.90
2022-08-24T15:46:20.124Z,16.10
2022-08-24T15:48:48.445Z,17.40
2022-08-24T15:51:36.693Z,16.85
2022-08-24T15:54:30.552Z,17.52
2022-08-24T15:57:02.264Z,16.73
2022-08-24T15:59:44.403Z,17.92
2022-08-24T16:02:26.569Z,17.17
2022-08-24T16:05:16.530Z,17.63
2022-08-24T16:08:01.883Z,18.10
2022-08-24T16:10:41.597Z,18.10
2022-08-24T16:13:16.008Z,18.17
2022-08-24T16:15:59.475Z,18.70
2022-08-24T16:18:45.160Z,18.27
2022-08-24T16:21:40.139Z,18.48
2022-08-24T16:24:17.431Z,19.00
2022-08-24T16:26:47.246Z,18.80
2022-08-24T16:29:39.087Z,18.75
2022-08-24T16:32:11.192Z,19.10
2022-08-24T16:34:54.880Z,18.98
2022-08-24T16:37:23.717Z,19.73
2022-08-24T16:39:51.264Z,17.90
2022-08-24T16:42:27.283Z,18.77
2022-08-24T16:44:55.625Z,18.38
2022-08-24T16:47:23.279Z,17.48
2022-08-24T16:49:51.453Z,18.67
2022-08-24T16:52:18.734Z,18.38
2022-08-24T16:54:46.410Z,18.45
2022-08-24T16:57:17.787Z,18.17
2022-08-24T16:59:47.634Z,18.88
2022-08-24T17:02:17.037Z,19.17
2022-08-24T17:04:44.338Z,19.48
2022-08-24T17:07:15.823Z,18.42
2022-08-24T17:09:46.208Z,19.98
2022-08-24T17:12:13.531Z,19.08
2022-08-24T17:14:40.853Z,20.05
2022-08-24T17:17:10.534Z,21.67
2022-08-24T17:19:38.995Z,22.52
2022-08-24T17:22:12.893Z,23.10
2022-08-24T17:24:42.520Z,22.75
2022-08-24T17:27:09.557Z,23.38
2022-08-24T17:29:36.535Z,22.63
2022-08-24T17:32:04.036Z,23.05
2022-08-24T17:34:32.193Z,22.75
2022-08-24T17:37:00.101Z,22.67
2022-08-24T17:39:27.915Z,23.75
2022-08-24T17:41:56.332Z,25.80
2022-08-24T17:44:26.800Z,26.50
2022-08-24T17:46:57.654Z,25.35
2022-08-24T17:49:24.744Z,25.58
2022-08-24T17:51:53.137Z,26.65
2022-08-24T17:54:20.059Z,26.05
2022-08-24T17:56:48.882Z,25.55
2022-08-24T17:59:20.690Z,24.42
2022-08-24T18:01:50.189Z,25.02
2022-08-24T18:04:18.218Z,25.35
2022-08-24T18:06:45.237Z,24.55
2022-08-24T18:09:19.442Z,24.77
2022-08-24T18:11:46.344Z,23.27
2022-08-24T18:14:13.821Z,23.20
2022-08-24T18:16:41.136Z,23.23
2022-08-24T18:19:09.411Z,24.55
2022-08-24T18:21:36.267Z,23.52
2022-08-24T18:24:06.435Z,22.95
2022-08-24T18:26:33.708Z,21.80
2022-08-24T18:29:23.148Z,22.77
2022-08-24T18:31:50.615Z,23.00
2022-08-24T18:34:21.230Z,22.77
2022-08-24T18:36:49.121Z,22.23
2022-08-24T18:39:16.264Z,23.25
2022-08-24T18:41:49.286Z,22.95
2022-08-24T18:44:21.563Z,22.15
2022-08-24T18:46:49.102Z,21.35
2022-08-24T18:49:17.556Z,21.55
2022-08-24T18:51:48.051Z,21.55
2022-08-24T18:54:22.139Z,21.27
2022-08-24T18:56:49.742Z,22.75
2022-08-24T18:59:18.552Z,21.55
2022-08-24T19:02:07.707Z,22.30
2022-08-24T19:04:46.028Z,20.98
2022-08-24T19:07:14.033Z,21.45
2022-08-24T19:09:41.281Z,22.90
2022-08-24T19:12:08.901Z,23.55
2022-08-24T19:14:36.833Z,22.35
2022-08-24T19:17:04.532Z,23.05
2022-08-24T19:19:31.365Z,23.15
2022-08-24T19:21:59.048Z,22.98
2022-08-24T19:24:27.525Z,22.92
2022-08-24T19:26:54.798Z,22.13
2022-08-24T19:29:44.843Z,19.40
2022-08-24T19:32:21.697Z,20.90
2022-08-24T19:34:50.053Z,18.15
2022-08-24T19:37:17.107Z,18.23
2022-08-24T19:39:44.220Z,17.98
2022-08-24T19:42:13.768Z,17.63
2022-08-24T19:44:59.404Z,17.45
2022-08-24T19:47:26.382Z,17.30
2022-08-24T19:49:53.287Z,16.83
2022-08-24T19:52:20.619Z,16.95
2022-08-24T19:54:47.904Z,17.67
2022-08-24T19:57:33.175Z,16.95
2022-08-24T20:00:07.365Z,17.90
2022-08-24T20:02:35.736Z,17.88
2022-08-24T20:05:02.654Z,19.05
2022-08-24T20:07:29.699Z,18.70
2022-08-24T20:09:56.627Z,18.70
2022-08-24T20:12:23.458Z,18.02
2022-08-24T20:14:50.452Z,18.85
2022-08-24T20:17:17.395Z,20.13
2022-08-24T20:19:45.098Z,18.98
2022-08-24T20:22:13.537Z,19.13
2022-08-24T20:24:40.702Z,18.05
2022-08-24T20:27:07.563Z,18.58
2022-08-24T20:29:34.473Z,17.63
2022-08-24T20:32:02.624Z,18.95
2022-08-24T20:34:29.688Z,18.08
2022-08-24T20:36:58.453Z,17.88
2022-08-24T20:39:27.079Z,17.60
2022-08-24T20:41:54.223Z,15.68
2022-08-24T20:44:21.780Z,16.40
2022-08-24T20:46:50.192Z,17.80
2022-08-24T20:49:21.490Z,17.40
2022-08-24T20:51:48.959Z,18.45
2022-08-24T20:54:16.037Z,17.73
2022-08-24T20:56:44.481Z,17.30
2022-08-24T20:59:14.284Z,17.45
2022-08-24T21:01:42.892Z,18.15
2022-08-24T21:04:10.211Z,16.10
2022-08-24T21:06:39.123Z,18.33
2022-08-24T21:09:06.385Z,18.15
2022-08-24T21:11:34.043Z,18.75
2022-08-24T21:14:02.428Z,19.10
2022-08-24T21:16:29.401Z,18.98
2022-08-24T21:18:56.260Z,19.10
2022-08-24T21:21:23.107Z,19.50
2022-08-24T21:23:49.881Z,19.15
2022-08-24T21:26:22.124Z,19.75
2022-08-24T21:28:50.263Z,18.95
2022-08-24T21:31:17.175Z,19.60
2022-08-24T21:34:02.571Z,19.00
2022-08-24T21:36:31.855Z,17.63
2022-08-24T21:38:59.964Z,18.42
2022-08-24T21:41:29.398Z,17.48
2022-08-24T21:43:56.859Z,14.38
2022-08-24T21:46:30.579Z,14.57
2022-08-24T21:48:57.425Z,13.45
2022-08-24T21:51:24.309Z,13.32
2022-08-24T21:53:51.128Z,13.82
2022-08-24T21:56:30.408Z,12.63
2022-08-24T21:58:57.354Z,13.90
2022-08-24T22:01:24.316Z,15.43
2022-08-24T22:03:51.262Z,13.30
2022-08-24T22:06:18.374Z,13.77
2022-08-24T22:08:45.243Z,14.35
2022-08-24T22:11:14.506Z,14.50
2022-08-24T22:13:42.290Z,14.93
2022-08-24T22:16:10.504Z,15.02
2022-08-24T22:18:37.836Z,16.50
2022-08-24T22:21:10.273Z,15.32
2022-08-24T22:23:37.294Z,15.98
2022-08-24T22:26:05.638Z,15.32
2022-08-24T22:28:37.710Z,15.98
2022-08-24T22:31:18.695Z,16.55
2022-08-24T22:33:45.991Z,14.38
2022-08-24T22:36:14.027Z,14.70
2022-08-24T22:38:41.321Z,14.35
2022-08-24T22:41:09.016Z,15.30
2022-08-24T22:43:54.529Z,14.38
2022-08-24T22:46:22.756Z,13.65
2022-08-24T22:48:49.687Z,14.43
2022-08-24T22:51:18.627Z,13.55
2022-08-24T22:53:46.206Z,14.70
2022-08-24T22:56:20.738Z,13.80
2022-08-24T22:58:47.764Z,13.05
2022-08-24T23:01:38.827Z,13.65
2022-08-24T23:04:09.703Z,13.50
2022-08-24T23:06:36.734Z,13.00
2022-08-24T23:09:05.515Z,13.35
2022-08-24T23:11:33.084Z,13.35
2022-08-24T23:14:04.720Z,13.27
2022-08-24T23:16:35.030Z,13.35
2022-08-24T23:19:20.619Z,12.75
2022-08-24T23:21:47.421Z,13.77
2022-08-24T23:24:14.692Z,13.30
2022-08-24T23:26:42.651Z,13.35
2022-08-24T23:29:11.598Z,13.25
2022-08-24T23:31:39.388Z,14.30
2022-08-24T23:34:08.000Z,13.75
2022-08-24T23:36:36.462Z,14.10
2022-08-24T23:39:06.544Z,14.82
2022-08-24T23:41:37.130Z,15.15
2022-08-24T23:44:07.192Z,14.00
2022-08-24T23:46:34.184Z,14.20
2022-08-24T23:49:03.430Z,13.68
2022-08-24T23:51:31.201Z,14.23
2022-08-24T23:53:59.042Z,14.75
2022-08-24T23:56:31.673Z,14.07
2022-08-24T23:59:02.760Z,14.43
